sensor_id;sensor_type;location;lat;lon;timestamp;pressure;altitude;pressure_sealevel;temperature;humidity
50702;BME280;36670;50.094;8.496;2022-07-26T00:00:50;100068.91;;;23.58;49.00
50702;BME280;36670;50.094;8.496;2022-07-26T00:03:16;100071.81;;;23.49;49.53
50702;BME280;36670;50.094;8.496;2022-07-26T00:05:41;100069.94;;;23.54;48.95
50702;BME280;36670;50.094;8.496;2022-07-26T00:08:07;100070.91;;;23.58;49.47
50702;BME280;36670;50.094;8.496;2022-07-26T00:10:42;100075.72;;;23.36;49.70
50702;BME280;36670;50.094;8.496;2022-07-26T00:13:08;100072.03;;;23.23;50.28
50702;BME280;36670;50.094;8.496;2022-07-26T00:15:34;100079.06;;;23.08;50.35
50702;BME280;36670;50.094;8.496;2022-07-26T00:18:00;100081.19;;;23.20;50.43
50702;BME280;36670;50.094;8.496;2022-07-26T00:20:25;100086.59;;;23.25;50.25
50702;BME280;36670;50.094;8.496;2022-07-26T00:22:50;100081.78;;;23.26;50.24
50702;BME280;36670;50.094;8.496;2022-07-26T00:25:16;100082.81;;;23.21;49.69
50702;BME280;36670;50.094;8.496;2022-07-26T00:27:41;100079.03;;;23.17;49.90
50702;BME280;36670;50.094;8.496;2022-07-26T00:30:08;100082.59;;;23.05;50.08
50702;BME280;36670;50.094;8.496;2022-07-26T00:32:34;100080.16;;;22.95;50.35
50702;BME280;36670;50.094;8.496;2022-07-26T00:34:59;100083.53;;;22.88;50.56
50702;BME280;36670;50.094;8.496;2022-07-26T00:37:25;100096.75;;;22.88;50.58
50702;BME280;36670;50.094;8.496;2022-07-26T00:39:50;100084.88;;;22.82;50.47
50702;BME280;36670;50.094;8.496;2022-07-26T00:42:16;100093.31;;;22.82;50.62
50702;BME280;36670;50.094;8.496;2022-07-26T00:44:44;100098.06;;;22.90;50.49
50702;BME280;36670;50.094;8.496;2022-07-26T00:47:09;100103.63;;;22.99;50.48
50702;BME280;36670;50.094;8.496;2022-07-26T00:49:35;100115.69;;;23.08;50.08
50702;BME280;36670;50.094;8.496;2022-07-26T00:52:02;100114.31;;;23.14;49.83
50702;BME280;36670;50.094;8.496;2022-07-26T00:54:28;100123.75;;;23.18;50.03
50702;BME280;36670;50.094;8.496;2022-07-26T00:56:54;100119.41;;;23.21;49.61
50702;BME280;36670;50.094;8.496;2022-07-26T00:59:19;100114.28;;;23.23;49.60
50702;BME280;36670;50.094;8.496;2022-07-26T01:01:44;100123.06;;;23.22;49.44
50702;BME280;36670;50.094;8.496;2022-07-26T01:04:10;100121.28;;;23.17;49.38
50702;BME280;36670;50.094;8.496;2022-07-26T01:06:35;100123.28;;;23.16;49.95
50702;BME280;36670;50.094;8.496;2022-07-26T01:09:01;100124.44;;;23.15;49.90
50702;BME280;36670;50.094;8.496;2022-07-26T01:11:27;100121.16;;;23.05;49.76
50702;BME280;36670;50.094;8.496;2022-07-26T01:13:53;100124.81;;;23.05;49.85
50702;BME280;36670;50.094;8.496;2022-07-26T01:16:18;100126.47;;;23.06;49.97
50702;BME280;36670;50.094;8.496;2022-07-26T01:18:44;100126.25;;;23.11;49.62
50702;BME280;36670;50.094;8.496;2022-07-26T01:21:10;100113.56;;;23.05;49.72
50702;BME280;36670;50.094;8.496;2022-07-26T01:23:36;100114.09;;;22.98;49.04
50702;BME280;36670;50.094;8.496;2022-07-26T01:26:02;100116.13;;;22.89;49.24
50702;BME280;36670;50.094;8.496;2022-07-26T01:28:28;100116.47;;;22.88;49.17
50702;BME280;36670;50.094;8.496;2022-07-26T01:30:54;100118.94;;;22.89;49.50
50702;BME280;36670;50.094;8.496;2022-07-26T01:33:19;100128.56;;;22.88;49.50
50702;BME280;36670;50.094;8.496;2022-07-26T01:35:45;100122.25;;;22.91;49.24
50702;BME280;36670;50.094;8.496;2022-07-26T01:38:10;100121.75;;;22.89;49.24
50702;BME280;36670;50.094;8.496;2022-07-26T01:40:35;100120.25;;;22.92;49.28
50702;BME280;36670;50.094;8.496;2022-07-26T01:43:01;100123.91;;;22.92;49.68
50702;BME280;36670;50.094;8.496;2022-07-26T01:45:26;100130.41;;;22.84;49.26
50702;BME280;36670;50.094;8.496;2022-07-26T01:47:52;100123.13;;;22.83;49.45
50702;BME280;36670;50.094;8.496;2022-07-26T01:50:17;100125.59;;;22.84;49.57
50702;BME280;36670;50.094;8.496;2022-07-26T01:52:42;100133.88;;;22.81;49.78
50702;BME280;36670;50.094;8.496;2022-07-26T01:55:08;100134.09;;;22.76;49.69
50702;BME280;36670;50.094;8.496;2022-07-26T01:57:34;100125.03;;;22.70;50.09
50702;BME280;36670;50.094;8.496;2022-07-26T01:59:59;100125.66;;;22.76;50.00
50702;BME280;36670;50.094;8.496;2022-07-26T02:02:24;100128.13;;;22.77;49.69
50702;BME280;36670;50.094;8.496;2022-07-26T02:04:50;100131.28;;;22.76;49.95
50702;BME280;36670;50.094;8.496;2022-07-26T02:07:26;100127.59;;;22.84;49.91
50702;BME280;36670;50.094;8.496;2022-07-26T02:09:51;100127.44;;;22.80;49.54
50702;BME280;36670;50.094;8.496;2022-07-26T02:12:17;100125.66;;;22.76;49.25
50702;BME280;36670;50.094;8.496;2022-07-26T02:14:42;100132.84;;;22.64;49.76
50702;BME280;36670;50.094;8.496;2022-07-26T02:17:08;100132.91;;;22.77;49.13
50702;BME280;36670;50.094;8.496;2022-07-26T02:19:33;100126.28;;;22.81;49.24
50702;BME280;36670;50.094;8.496;2022-07-26T02:21:59;100131.06;;;22.81;49.05
50702;BME280;36670;50.094;8.496;2022-07-26T02:24:25;100122.63;;;22.81;48.66
50702;BME280;36670;50.094;8.496;2022-07-26T02:26:58;100130.09;;;22.77;48.75
50702;BME280;36670;50.094;8.496;2022-07-26T02:29:24;100126.00;;;22.74;49.03
50702;BME280;36670;50.094;8.496;2022-07-26T02:31:50;100125.16;;;22.74;49.01
50702;BME280;36670;50.094;8.496;2022-07-26T02:34:16;100123.03;;;22.71;49.03
50702;BME280;36670;50.094;8.496;2022-07-26T02:36:42;100125.69;;;22.67;48.93
50702;BME280;36670;50.094;8.496;2022-07-26T02:39:08;100118.78;;;22.64;48.87
50702;BME280;36670;50.094;8.496;2022-07-26T02:41:33;100118.44;;;22.57;48.83
50702;BME280;36670;50.094;8.496;2022-07-26T02:43:58;100117.47;;;22.53;48.75
50702;BME280;36670;50.094;8.496;2022-07-26T02:46:24;100123.31;;;22.48;49.35
50702;BME280;36670;50.094;8.496;2022-07-26T02:48:49;100121.50;;;22.43;49.33
50702;BME280;36670;50.094;8.496;2022-07-26T02:51:15;100125.63;;;22.46;49.24
50702;BME280;36670;50.094;8.496;2022-07-26T02:53:40;100117.38;;;22.41;49.63
50702;BME280;36670;50.094;8.496;2022-07-26T02:56:06;100128.47;;;22.37;49.44
50702;BME280;36670;50.094;8.496;2022-07-26T02:58:31;100123.84;;;22.32;49.45
50702;BME280;36670;50.094;8.496;2022-07-26T03:00:57;100123.69;;;22.29;49.68
50702;BME280;36670;50.094;8.496;2022-07-26T03:03:22;100127.34;;;22.21;49.82
50702;BME280;36670;50.094;8.496;2022-07-26T03:05:47;100130.81;;;22.17;49.88
50702;BME280;36670;50.094;8.496;2022-07-26T03:08:13;100128.53;;;22.11;50.34
50702;BME280;36670;50.094;8.496;2022-07-26T03:10:38;100129.19;;;22.08;49.98
50702;BME280;36670;50.094;8.496;2022-07-26T03:13:04;100130.88;;;22.09;49.96
50702;BME280;36670;50.094;8.496;2022-07-26T03:15:29;100127.38;;;22.03;50.18
50702;BME280;36670;50.094;8.496;2022-07-26T03:17:55;100124.94;;;21.93;50.51
50702;BME280;36670;50.094;8.496;2022-07-26T03:20:20;100134.50;;;21.92;50.65
50702;BME280;36670;50.094;8.496;2022-07-26T03:22:45;100136.50;;;21.91;50.34
50702;BME280;36670;50.094;8.496;2022-07-26T03:25:11;100136.69;;;21.77;51.08
50702;BME280;36670;50.094;8.496;2022-07-26T03:27:36;100145.78;;;21.74;50.71
50702;BME280;36670;50.094;8.496;2022-07-26T03:30:02;100143.50;;;21.59;51.49
50702;BME280;36670;50.094;8.496;2022-07-26T03:32:28;100135.53;;;21.61;50.94
50702;BME280;36670;50.094;8.496;2022-07-26T03:34:53;100141.84;;;21.58;50.85
50702;BME280;36670;50.094;8.496;2022-07-26T03:37:18;100137.22;;;21.62;51.33
50702;BME280;36670;50.094;8.496;2022-07-26T03:39:44;100133.59;;;21.61;51.23
50702;BME280;36670;50.094;8.496;2022-07-26T03:42:09;100138.16;;;21.48;51.61
50702;BME280;36670;50.094;8.496;2022-07-26T03:44:35;100135.03;;;21.41;51.54
50702;BME280;36670;50.094;8.496;2022-07-26T03:47:00;100136.34;;;21.44;51.40
50702;BME280;36670;50.094;8.496;2022-07-26T03:49:26;100139.81;;;21.32;52.09
50702;BME280;36670;50.094;8.496;2022-07-26T03:51:52;100143.78;;;21.31;51.77
50702;BME280;36670;50.094;8.496;2022-07-26T03:54:19;100137.34;;;21.39;51.76
50702;BME280;36670;50.094;8.496;2022-07-26T03:56:44;100138.16;;;21.40;51.86
50702;BME280;36670;50.094;8.496;2022-07-26T03:59:10;100142.31;;;21.34;51.52
50702;BME280;36670;50.094;8.496;2022-07-26T04:01:37;100146.59;;;21.31;52.07
50702;BME280;36670;50.094;8.496;2022-07-26T04:04:10;100148.91;;;21.29;51.76
50702;BME280;36670;50.094;8.496;2022-07-26T04:06:35;100152.84;;;21.28;52.21
50702;BME280;36670;50.094;8.496;2022-07-26T04:09:02;100152.84;;;21.28;52.18
50702;BME280;36670;50.094;8.496;2022-07-26T04:11:27;100154.19;;;21.39;52.05
50702;BME280;36670;50.094;8.496;2022-07-26T04:13:53;100160.34;;;21.59;51.90
50702;BME280;36670;50.094;8.496;2022-07-26T04:16:18;100155.50;;;22.03;51.65
50702;BME280;36670;50.094;8.496;2022-07-26T04:18:44;100156.72;;;22.49;50.27
50702;BME280;36670;50.094;8.496;2022-07-26T04:21:09;100154.41;;;23.11;48.79
50702;BME280;36670;50.094;8.496;2022-07-26T04:23:34;100157.47;;;23.69;48.61
50702;BME280;36670;50.094;8.496;2022-07-26T04:26:00;100145.00;;;24.25;46.85
50702;BME280;36670;50.094;8.496;2022-07-26T04:28:25;100154.16;;;24.68;45.93
50702;BME280;36670;50.094;8.496;2022-07-26T04:30:53;100157.53;;;25.11;45.41
50702;BME280;36670;50.094;8.496;2022-07-26T04:33:19;100146.72;;;25.66;44.41
50702;BME280;36670;50.094;8.496;2022-07-26T04:35:44;100154.81;;;26.08;43.18
50702;BME280;36670;50.094;8.496;2022-07-26T04:38:10;100156.69;;;26.48;42.26
50702;BME280;36670;50.094;8.496;2022-07-26T04:40:35;100151.22;;;26.87;41.64
50702;BME280;36670;50.094;8.496;2022-07-26T04:43:01;100158.09;;;27.22;40.28
50702;BME280;36670;50.094;8.496;2022-07-26T04:45:27;100159.53;;;27.67;39.89
50702;BME280;36670;50.094;8.496;2022-07-26T04:47:53;100158.53;;;28.18;38.46
50702;BME280;36670;50.094;8.496;2022-07-26T04:50:20;100167.63;;;28.70;37.75
50702;BME280;36670;50.094;8.496;2022-07-26T04:52:46;100162.78;;;28.98;37.37
50702;BME280;36670;50.094;8.496;2022-07-26T04:55:12;100161.81;;;29.40;36.67
50702;BME280;36670;50.094;8.496;2022-07-26T04:57:37;100168.69;;;30.00;35.35
50702;BME280;36670;50.094;8.496;2022-07-26T05:00:05;100164.47;;;29.86;34.96
50702;BME280;36670;50.094;8.496;2022-07-26T05:02:31;100152.22;;;30.16;34.50
50702;BME280;36670;50.094;8.496;2022-07-26T05:04:56;100153.28;;;30.42;34.16
50702;BME280;36670;50.094;8.496;2022-07-26T05:07:21;100162.78;;;31.02;33.62
50702;BME280;36670;50.094;8.496;2022-07-26T05:09:46;100160.09;;;31.23;33.37
50702;BME280;36670;50.094;8.496;2022-07-26T05:12:12;100153.81;;;31.62;32.22
50702;BME280;36670;50.094;8.496;2022-07-26T05:14:37;100157.56;;;31.85;32.09
50702;BME280;36670;50.094;8.496;2022-07-26T05:17:03;100158.94;;;32.30;31.65
50702;BME280;36670;50.094;8.496;2022-07-26T05:19:29;100158.19;;;32.70;30.44
50702;BME280;36670;50.094;8.496;2022-07-26T05:21:54;100166.34;;;32.93;30.64
50702;BME280;36670;50.094;8.496;2022-07-26T05:24:20;100159.38;;;33.08;29.91
50702;BME280;36670;50.094;8.496;2022-07-26T05:26:45;100164.69;;;32.84;30.17
50702;BME280;36670;50.094;8.496;2022-07-26T05:29:10;100173.25;;;33.03;29.86
50702;BME280;36670;50.094;8.496;2022-07-26T05:31:36;100181.84;;;33.13;30.00
50702;BME280;36670;50.094;8.496;2022-07-26T05:34:01;100185.84;;;32.19;29.69
50702;BME280;36670;50.094;8.496;2022-07-26T05:36:27;100192.75;;;31.37;30.61
50702;BME280;36670;50.094;8.496;2022-07-26T05:38:53;100187.69;;;30.63;31.50
50702;BME280;36670;50.094;8.496;2022-07-26T05:41:18;100195.59;;;30.06;33.05
50702;BME280;36670;50.094;8.496;2022-07-26T05:43:43;100192.00;;;30.91;33.09
50702;BME280;36670;50.094;8.496;2022-07-26T05:46:10;100186.13;;;31.95;31.71
50702;BME280;36670;50.094;8.496;2022-07-26T05:48:35;100184.47;;;31.87;31.16
50702;BME280;36670;50.094;8.496;2022-07-26T05:51:01;100184.19;;;32.17;30.57
50702;BME280;36670;50.094;8.496;2022-07-26T05:53:26;100183.91;;;33.06;29.38
50702;BME280;36670;50.094;8.496;2022-07-26T05:55:51;100187.56;;;33.06;29.36
50702;BME280;36670;50.094;8.496;2022-07-26T05:58:17;100179.25;;;33.73;28.29
50702;BME280;36670;50.094;8.496;2022-07-26T06:00:42;100182.78;;;34.13;28.38
50702;BME280;36670;50.094;8.496;2022-07-26T06:03:08;100167.59;;;34.83;27.80
50702;BME280;36670;50.094;8.496;2022-07-26T06:05:49;100174.03;;;34.98;26.67
50702;BME280;36670;50.094;8.496;2022-07-26T06:08:16;100179.19;;;34.65;26.96
50702;BME280;36670;50.094;8.496;2022-07-26T06:10:42;100180.88;;;34.56;26.57
50702;BME280;36670;50.094;8.496;2022-07-26T06:13:07;100186.53;;;34.70;27.30
50702;BME280;36670;50.094;8.496;2022-07-26T06:15:32;100185.69;;;34.69;26.41
50702;BME280;36670;50.094;8.496;2022-07-26T06:17:58;100188.41;;;34.28;26.76
50702;BME280;36670;50.094;8.496;2022-07-26T06:20:23;100189.28;;;34.21;27.47
50702;BME280;36670;50.094;8.496;2022-07-26T06:22:48;100185.03;;;34.51;27.56
50702;BME280;36670;50.094;8.496;2022-07-26T06:25:15;100185.69;;;34.69;26.54
50702;BME280;36670;50.094;8.496;2022-07-26T06:27:40;100179.25;;;34.58;26.89
50702;BME280;36670;50.094;8.496;2022-07-26T06:30:06;100182.28;;;34.29;27.08
50702;BME280;36670;50.094;8.496;2022-07-26T06:32:32;100177.91;;;34.07;27.26
50702;BME280;36670;50.094;8.496;2022-07-26T06:34:57;100185.91;;;33.30;27.93
50702;BME280;36670;50.094;8.496;2022-07-26T06:37:22;100195.31;;;32.98;28.69
50702;BME280;36670;50.094;8.496;2022-07-26T06:39:48;100193.72;;;31.59;29.47
50702;BME280;36670;50.094;8.496;2022-07-26T06:42:13;100198.16;;;30.97;31.11
50702;BME280;36670;50.094;8.496;2022-07-26T06:44:38;100209.69;;;30.29;31.50
50702;BME280;36670;50.094;8.496;2022-07-26T06:47:03;100208.69;;;29.50;33.25
50702;BME280;36670;50.094;8.496;2022-07-26T06:49:29;100195.31;;;28.54;33.76
50702;BME280;36670;50.094;8.496;2022-07-26T06:51:54;100201.88;;;28.15;35.37
50702;BME280;36670;50.094;8.496;2022-07-26T06:54:22;100212.69;;;27.90;35.79
50702;BME280;36670;50.094;8.496;2022-07-26T06:56:47;100202.50;;;27.50;36.39
50702;BME280;36670;50.094;8.496;2022-07-26T06:59:12;100206.38;;;27.25;37.72
50702;BME280;36670;50.094;8.496;2022-07-26T07:01:38;100206.97;;;27.35;37.20
50702;BME280;36670;50.094;8.496;2022-07-26T07:04:03;100206.44;;;27.45;37.63
50702;BME280;36670;50.094;8.496;2022-07-26T07:06:28;100196.97;;;27.21;36.99
50702;BME280;36670;50.094;8.496;2022-07-26T07:08:54;100197.84;;;27.41;38.56
50702;BME280;36670;50.094;8.496;2022-07-26T07:11:19;100189.22;;;27.73;37.68
50702;BME280;36670;50.094;8.496;2022-07-26T07:13:44;100197.19;;;27.48;38.15
50702;BME280;36670;50.094;8.496;2022-07-26T07:16:10;100199.47;;;27.78;38.23
50702;BME280;36670;50.094;8.496;2022-07-26T07:18:35;100191.94;;;28.05;37.96
50702;BME280;36670;50.094;8.496;2022-07-26T07:21:00;100195.16;;;28.04;36.73
50702;BME280;36670;50.094;8.496;2022-07-26T07:23:26;100197.31;;;27.71;36.83
50702;BME280;36670;50.094;8.496;2022-07-26T07:25:51;100199.88;;;27.25;37.95
50702;BME280;36670;50.094;8.496;2022-07-26T07:28:16;100199.94;;;26.77;39.20
50702;BME280;36670;50.094;8.496;2022-07-26T07:30:42;100199.09;;;26.92;39.68
50702;BME280;36670;50.094;8.496;2022-07-26T07:33:07;100199.59;;;27.30;39.11
50702;BME280;36670;50.094;8.496;2022-07-26T07:35:37;100206.91;;;27.31;38.75
50702;BME280;36670;50.094;8.496;2022-07-26T07:38:02;100210.41;;;27.24;38.42
50702;BME280;36670;50.094;8.496;2022-07-26T07:40:28;100204.88;;;27.32;39.21
50702;BME280;36670;50.094;8.496;2022-07-26T07:42:54;100202.47;;;27.85;39.05
50702;BME280;36670;50.094;8.496;2022-07-26T07:45:19;100210.56;;;28.46;37.76
50702;BME280;36670;50.094;8.496;2022-07-26T07:47:44;100193.16;;;28.47;37.45
50702;BME280;36670;50.094;8.496;2022-07-26T07:50:10;100202.72;;;28.16;37.20
50702;BME280;36670;50.094;8.496;2022-07-26T07:52:35;100199.78;;;28.55;36.46
50702;BME280;36670;50.094;8.496;2022-07-26T07:55:00;100203.44;;;28.55;36.70
50702;BME280;36670;50.094;8.496;2022-07-26T07:57:26;100192.38;;;28.50;36.26
50702;BME280;36670;50.094;8.496;2022-07-26T07:59:51;100203.78;;;28.31;36.93
50702;BME280;36670;50.094;8.496;2022-07-26T08:02:16;100194.16;;;28.35;36.69
50702;BME280;36670;50.094;8.496;2022-07-26T08:04:41;100202.28;;;28.60;36.00
50702;BME280;36670;50.094;8.496;2022-07-26T08:07:07;100196.38;;;28.92;36.36
50702;BME280;36670;50.094;8.496;2022-07-26T08:09:32;100191.28;;;28.55;36.08
50702;BME280;36670;50.094;8.496;2022-07-26T08:11:58;100200.94;;;28.31;36.10
50702;BME280;36670;50.094;8.496;2022-07-26T08:14:23;100193.81;;;28.17;36.40
50702;BME280;36670;50.094;8.496;2022-07-26T08:16:48;100199.03;;;28.58;35.72
50702;BME280;36670;50.094;8.496;2022-07-26T08:19:13;100203.91;;;28.38;36.39
50702;BME280;36670;50.094;8.496;2022-07-26T08:21:39;100210.34;;;28.35;36.51
50702;BME280;36670;50.094;8.496;2022-07-26T08:24:04;100204.53;;;28.27;36.51
50702;BME280;36670;50.094;8.496;2022-07-26T08:26:30;100202.53;;;28.08;36.24
50702;BME280;36670;50.094;8.496;2022-07-26T08:28:55;100210.06;;;27.62;36.51
50702;BME280;36670;50.094;8.496;2022-07-26T08:31:20;100207.75;;;27.16;38.27
50702;BME280;36670;50.094;8.496;2022-07-26T08:33:47;100217.63;;;27.22;37.47
50702;BME280;36670;50.094;8.496;2022-07-26T08:36:16;100221.72;;;27.24;38.18
50702;BME280;36670;50.094;8.496;2022-07-26T08:38:42;100209.38;;;27.33;36.90
50702;BME280;36670;50.094;8.496;2022-07-26T08:41:08;100215.03;;;27.33;37.53
50702;BME280;36670;50.094;8.496;2022-07-26T08:43:34;100215.03;;;27.49;36.98
50702;BME280;36670;50.094;8.496;2022-07-26T08:45:59;100218.41;;;27.54;37.34
50702;BME280;36670;50.094;8.496;2022-07-26T08:48:28;100216.00;;;27.56;37.39
50702;BME280;36670;50.094;8.496;2022-07-26T08:50:55;100222.28;;;27.46;37.78
50702;BME280;36670;50.094;8.496;2022-07-26T08:53:21;100231.22;;;27.48;37.41
50702;BME280;36670;50.094;8.496;2022-07-26T08:55:46;100221.47;;;27.14;37.91
50702;BME280;36670;50.094;8.496;2022-07-26T08:58:12;100231.06;;;27.09;37.87
50702;BME280;36670;50.094;8.496;2022-07-26T09:00:37;100226.88;;;27.03;37.37
50702;BME280;36670;50.094;8.496;2022-07-26T09:03:03;100229.78;;;27.38;38.16
50702;BME280;36670;50.094;8.496;2022-07-26T09:05:33;100222.66;;;28.00;37.70
50702;BME280;36670;50.094;8.496;2022-07-26T09:07:59;100220.97;;;28.61;35.22
50702;BME280;36670;50.094;8.496;2022-07-26T09:10:26;100223.09;;;28.64;35.24
50702;BME280;36670;50.094;8.496;2022-07-26T09:12:54;100233.09;;;28.77;34.49
50702;BME280;36670;50.094;8.496;2022-07-26T09:15:22;100228.94;;;28.71;34.35
50702;BME280;36670;50.094;8.496;2022-07-26T09:17:51;100242.22;;;28.05;35.22
50702;BME280;36670;50.094;8.496;2022-07-26T09:20:25;100240.00;;;27.79;34.28
50702;BME280;36670;50.094;8.496;2022-07-26T09:23:10;100247.06;;;27.17;35.01
50702;BME280;36670;50.094;8.496;2022-07-26T09:25:42;100240.69;;;27.36;35.47
50702;BME280;36670;50.094;8.496;2022-07-26T09:28:27;100238.47;;;27.65;35.03
50702;BME280;36670;50.094;8.496;2022-07-26T09:31:02;100230.16;;;27.92;35.20
50702;BME280;36670;50.094;8.496;2022-07-26T09:33:48;100234.22;;;28.10;35.66
50702;BME280;36670;50.094;8.496;2022-07-26T09:36:15;100226.25;;;28.82;34.95
50702;BME280;36670;50.094;8.496;2022-07-26T09:38:49;100227.06;;;29.06;34.67
50702;BME280;36670;50.094;8.496;2022-07-26T09:41:25;100225.09;;;29.33;34.09
50702;BME280;36670;50.094;8.496;2022-07-26T09:43:51;100229.69;;;29.41;33.58
50702;BME280;36670;50.094;8.496;2022-07-26T09:46:18;100221.84;;;29.88;33.91
50702;BME280;36670;50.094;8.496;2022-07-26T09:48:44;100228.63;;;30.14;31.72
50702;BME280;36670;50.094;8.496;2022-07-26T09:51:09;100220.09;;;29.53;32.15
50702;BME280;36670;50.094;8.496;2022-07-26T09:53:45;100231.13;;;29.05;33.28
50702;BME280;36670;50.094;8.496;2022-07-26T09:56:12;100227.19;;;28.67;33.23
50702;BME280;36670;50.094;8.496;2022-07-26T09:58:37;100235.78;;;28.08;34.25
50702;BME280;36670;50.094;8.496;2022-07-26T10:01:05;100238.72;;;28.12;34.74
50702;BME280;36670;50.094;8.496;2022-07-26T10:03:31;100241.59;;;28.15;34.33
50702;BME280;36670;50.094;8.496;2022-07-26T10:05:58;100237.56;;;28.16;34.92
50702;BME280;36670;50.094;8.496;2022-07-26T10:08:24;100240.81;;;27.79;35.04
50702;BME280;36670;50.094;8.496;2022-07-26T10:11:10;100235.25;;;27.47;35.26
50702;BME280;36670;50.094;8.496;2022-07-26T10:13:35;100248.78;;;27.22;35.40
50702;BME280;36670;50.094;8.496;2022-07-26T10:16:02;100250.09;;;27.08;35.42
50702;BME280;36670;50.094;8.496;2022-07-26T10:21:21;100237.84;;;27.04;37.02
50702;BME280;36670;50.094;8.496;2022-07-26T10:23:55;100241.28;;;27.81;36.41
50702;BME280;36670;50.094;8.496;2022-07-26T10:31:46;100229.59;;;29.11;34.73
50702;BME280;36670;50.094;8.496;2022-07-26T10:34:38;100240.94;;;29.11;34.09
50702;BME280;36670;50.094;8.496;2022-07-26T10:37:08;100254.66;;;29.05;33.80
50702;BME280;36670;50.094;8.496;2022-07-26T10:39:34;100249.56;;;28.91;33.41
50702;BME280;36670;50.094;8.496;2022-07-26T10:42:10;100250.53;;;28.99;33.78
50702;BME280;36670;50.094;8.496;2022-07-26T10:44:42;100243.75;;;28.84;33.65
50702;BME280;36670;50.094;8.496;2022-07-26T10:47:13;100245.09;;;29.17;34.87
50702;BME280;36670;50.094;8.496;2022-07-26T10:49:40;100247.56;;;29.99;33.26
50702;BME280;36670;50.094;8.496;2022-07-26T10:52:17;100248.00;;;30.01;31.86
50702;BME280;36670;50.094;8.496;2022-07-26T10:59:53;100258.47;;;28.90;33.36
50702;BME280;36670;50.094;8.496;2022-07-26T11:02:30;100247.16;;;28.70;33.20
50702;BME280;36670;50.094;8.496;2022-07-26T11:05:00;100255.56;;;28.63;32.93
50702;BME280;36670;50.094;8.496;2022-07-26T11:07:26;100247.78;;;28.21;34.52
50702;BME280;36670;50.094;8.496;2022-07-26T11:09:55;100255.56;;;28.24;35.33
50702;BME280;36670;50.094;8.496;2022-07-26T11:12:21;100239.91;;;28.10;34.25
50702;BME280;36670;50.094;8.496;2022-07-26T11:14:47;100240.84;;;28.18;34.06
50702;BME280;36670;50.094;8.496;2022-07-26T11:17:27;100233.66;;;28.44;34.07
50702;BME280;36670;50.094;8.496;2022-07-26T11:19:54;100232.88;;;28.67;34.62
50702;BME280;36670;50.094;8.496;2022-07-26T11:22:20;100228.25;;;29.28;32.99
50702;BME280;36670;50.094;8.496;2022-07-26T11:24:46;100229.41;;;29.50;32.79
50702;BME280;36670;50.094;8.496;2022-07-26T11:27:11;100228.88;;;29.98;32.22
50702;BME280;36670;50.094;8.496;2022-07-26T11:29:37;100220.44;;;30.84;31.66
50702;BME280;36670;50.094;8.496;2022-07-26T11:32:03;100227.94;;;30.58;31.79
50702;BME280;36670;50.094;8.496;2022-07-26T11:34:31;100238.59;;;30.31;31.55
50702;BME280;36670;50.094;8.496;2022-07-26T11:37:01;100238.22;;;29.41;32.96
50702;BME280;36670;50.094;8.496;2022-07-26T11:39:34;100229.28;;;28.70;34.33
50702;BME280;36670;50.094;8.496;2022-07-26T11:42:10;100234.56;;;28.48;34.53
50702;BME280;36670;50.094;8.496;2022-07-26T11:44:38;100251.03;;;28.00;35.28
50702;BME280;36670;50.094;8.496;2022-07-26T11:47:15;100242.31;;;27.92;35.45
50702;BME280;36670;50.094;8.496;2022-07-26T11:49:41;100243.88;;;27.90;35.29
50702;BME280;36670;50.094;8.496;2022-07-26T11:52:07;100240.31;;;27.93;35.98
50702;BME280;36670;50.094;8.496;2022-07-26T11:54:47;100242.59;;;28.03;34.99
50702;BME280;36670;50.094;8.496;2022-07-26T11:57:13;100247.25;;;27.96;35.15
50702;BME280;36670;50.094;8.496;2022-07-26T11:59:39;100240.81;;;27.99;35.21
50702;BME280;36670;50.094;8.496;2022-07-26T12:02:07;100250.84;;;27.92;35.80
50702;BME280;36670;50.094;8.496;2022-07-26T12:04:35;100245.34;;;28.00;35.13
50702;BME280;36670;50.094;8.496;2022-07-26T12:07:08;100239.13;;;28.33;35.19
50702;BME280;36670;50.094;8.496;2022-07-26T12:09:41;100231.84;;;28.55;35.02
50702;BME280;36670;50.094;8.496;2022-07-26T12:12:08;100235.28;;;28.88;35.04
50702;BME280;36670;50.094;8.496;2022-07-26T12:14:36;100242.22;;;29.37;33.94
50702;BME280;36670;50.094;8.496;2022-07-26T12:17:16;100235.03;;;28.97;33.40
50702;BME280;36670;50.094;8.496;2022-07-26T12:19:42;100233.19;;;28.42;33.39
50702;BME280;36670;50.094;8.496;2022-07-26T12:22:14;100233.09;;;28.15;34.91
50702;BME280;36670;50.094;8.496;2022-07-26T12:27:21;100230.31;;;28.81;34.30
50702;BME280;36670;50.094;8.496;2022-07-26T12:29:55;100218.31;;;28.91;34.66
50702;BME280;36670;50.094;8.496;2022-07-26T12:32:39;100225.09;;;29.33;34.34
50702;BME280;36670;50.094;8.496;2022-07-26T12:35:12;100226.09;;;29.21;33.31
50702;BME280;36670;50.094;8.496;2022-07-26T12:40:14;100225.91;;;28.41;34.04
50702;BME280;36670;50.094;8.496;2022-07-26T12:42:42;100226.97;;;28.33;35.11
50702;BME280;36670;50.094;8.496;2022-07-26T12:45:10;100224.13;;;28.33;34.72
50702;BME280;36670;50.094;8.496;2022-07-26T12:47:38;100233.19;;;28.42;34.22
50702;BME280;36670;50.094;8.496;2022-07-26T12:50:05;100233.53;;;28.37;34.42
50702;BME280;36670;50.094;8.496;2022-07-26T12:52:31;100222.34;;;28.24;34.79
50702;BME280;36670;50.094;8.496;2022-07-26T12:54:58;100223.44;;;28.39;34.34
50702;BME280;36670;50.094;8.496;2022-07-26T12:57:23;100218.56;;;28.40;34.68
50702;BME280;36670;50.094;8.496;2022-07-26T12:59:49;100219.44;;;28.87;34.47
50702;BME280;36670;50.094;8.496;2022-07-26T13:02:18;100210.84;;;29.06;34.51
50702;BME280;36670;50.094;8.496;2022-07-26T13:04:45;100210.66;;;29.45;33.66
50702;BME280;36670;50.094;8.496;2022-07-26T13:07:10;100216.75;;;29.21;33.11